Time;durP1;ratioP1;P1;durP2;ratioP2;P2;SDS_P1;SDS_P2;PMS_P1;PMS_P2;Temp;Humidity;BMP_temperature;BMP_pressure;BME280_temperature;BME280_humidity;BME280_pressure;Samples;Min_cycle;Max_cycle;Signal;HPM_P1;HPM_P2
2023/04/10 18:37:47;;;;;;;10.40;1.80;;;34.90;55.10;;;;;;5089310;27;20414;-59
2023/04/10 18:40:14;;;;;;;13.18;1.95;;;35.00;35.40;;;;;;5083438;28;20743;-59
2023/04/10 18:42:40;;;;;;;28.42;9.45;;;35.50;26.00;;;;;;5084629;28;20055;-64
2023/04/10 18:45:07;;;;;;;32.78;9.35;;;36.00;25.90;;;;;;5083370;28;20420;-64
2023/04/10 18:47:34;;;;;;;11.68;2.15;;;36.30;25.50;;;;;;5085971;28;20027;-64
2023/04/10 18:50:00;;;;;;;10.45;2.22;;;36.30;25.20;;;;;;5083276;28;20533;-60
2023/04/10 18:52:26;;;;;;;10.70;2.15;;;36.40;26.00;;;;;;5083883;28;20036;-65
2023/04/10 18:54:53;;;;;;;14.10;2.33;;;36.40;25.90;;;;;;5084730;28;20024;-65
2023/04/10 18:57:19;;;;;;;18.98;2.47;;;36.40;25.80;;;;;;5083486;28;20094;-64
2023/04/10 18:59:46;;;;;;;14.15;2.00;;;36.20;26.00;;;;;;5084284;28;20123;-64
2023/04/10 19:02:12;;;;;;;10.73;2.17;;;36.30;25.70;;;;;;5085834;28;20020;-66
2023/04/10 19:04:39;;;;;;;14.45;2.15;;;35.90;25.10;;;;;;5087724;28;20061;-65
2023/04/10 19:07:05;;;;;;;18.08;2.90;;;35.90;25.70;;;;;;5085603;28;20032;-64
2023/04/10 19:09:32;;;;;;;19.42;2.13;;;35.90;25.90;;;;;;5082459;28;20032;-60
2023/04/10 19:11:58;;;;;;;30.58;2.78;;;36.30;26.10;;;;;;5083777;28;20024;-65
2023/04/10 19:14:24;;;;;;;10.60;1.90;;;36.00;25.00;;;;;;5083581;28;20476;-63
2023/04/10 19:16:51;;;;;;;9.45;2.10;;;36.40;25.20;;;;;;5084236;28;20028;-64
2023/04/10 19:19:17;;;;;;;29.10;3.35;;;36.40;25.20;;;;;;5083876;28;20052;-62
2023/04/10 19:21:44;;;;;;;7.53;2.22;;;36.40;25.20;;;;;;5082658;28;20044;-62
2023/04/10 19:24:10;;;;;;;12.70;2.30;;;36.40;25.80;;;;;;5085058;28;20050;-61
2023/04/10 19:26:37;;;;;;;14.10;2.10;;;36.60;25.10;;;;;;5083896;28;20043;-63
2023/04/10 19:29:03;;;;;;;6.18;1.90;;;36.70;24.20;;;;;;5084541;28;20118;-61
2023/04/10 19:31:30;;;;;;;7.63;1.83;;;36.80;24.70;;;;;;5082431;28;20067;-65
2023/04/10 19:33:56;;;;;;;11.45;2.15;;;36.50;23.90;;;;;;5084306;28;20096;-63
2023/04/10 19:36:23;;;;;;;4.07;1.70;;;36.60;24.60;;;;;;5085439;28;20077;-62
2023/04/10 19:38:50;;;;;;;16.58;2.80;;;36.80;24.10;;;;;;5084257;28;20059;-62
2023/04/10 19:41:17;;;;;;;8.23;1.92;;;36.80;24.70;;;;;;5083728;28;20543;-62
2023/04/10 19:43:43;;;;;;;7.70;1.70;;;36.70;24.10;;;;;;5081697;28;20386;-61
2023/04/10 19:46:19;;;;;;;15.35;2.25;;;36.30;24.30;;;;;;5080028;28;20070;-60
2023/04/10 19:48:47;;;;;;;18.63;2.88;;;36.60;25.00;;;;;;5073682;28;20519;-59
2023/04/10 19:51:14;;;;;;;9.93;2.03;;;37.00;24.70;;;;;;5071847;28;20073;-57
2023/04/10 19:53:41;;;;;;;10.45;2.10;;;37.20;23.70;;;;;;5072419;28;20065;-61
2023/04/10 19:56:08;;;;;;;8.02;1.63;;;37.40;23.30;;;;;;5071251;28;20057;-60
2023/04/10 19:58:34;;;;;;;8.68;1.70;;;37.50;23.40;;;;;;5072501;28;20517;-59
2023/04/10 20:01:02;;;;;;;9.05;1.80;;;37.70;23.70;;;;;;5067923;28;20146;-61
2023/04/10 20:03:30;;;;;;;8.25;1.65;;;37.80;23.80;;;;;;5069717;28;20020;-61
2023/04/10 20:05:57;;;;;;;20.27;7.28;;;37.70;23.40;;;;;;5076464;28;20046;-59
2023/04/10 20:08:23;;;;;;;10.30;1.70;;;37.50;23.40;;;;;;5068827;28;20031;-62
2023/04/10 20:10:50;;;;;;;13.98;2.20;;;37.80;23.20;;;;;;5075148;28;20021;-60
2023/04/10 20:13:16;;;;;;;7.32;2.00;;;37.90;23.00;;;;;;5072282;28;20036;-61
2023/04/10 20:15:43;;;;;;;10.05;2.13;;;38.00;22.70;;;;;;5069868;28;20017;-62
2023/04/10 20:18:09;;;;;;;7.82;2.00;;;37.90;23.10;;;;;;5069027;28;20154;-62
2023/04/10 20:20:36;;;;;;;16.88;2.13;;;37.60;22.60;;;;;;5070421;28;20083;-60
2023/04/10 20:23:02;;;;;;;3.97;1.67;;;37.90;22.70;;;;;;5068974;28;20043;-60
2023/04/10 20:25:29;;;;;;;12.30;2.17;;;37.70;22.60;;;;;;5068194;28;20050;-58
2023/04/10 20:27:55;;;;;;;11.63;2.47;;;37.60;22.60;;;;;;5068954;28;20035;-61
2023/04/10 20:30:21;;;;;;;12.43;2.08;;;37.90;22.70;;;;;;5068315;28;20496;-59
2023/04/10 20:32:48;;;;;;;9.68;2.10;;;38.10;22.60;;;;;;5071608;28;20029;-60
2023/04/10 20:35:14;;;;;;;15.13;2.42;;;38.40;22.80;;;;;;5069872;28;20013;-58
2023/04/10 20:37:41;;;;;;;10.10;1.80;;;38.50;22.40;;;;;;5069092;28;20040;-61
2023/04/10 20:40:08;;;;;;;13.32;2.15;;;38.20;21.10;;;;;;5068932;28;20545;-61
2023/04/10 20:42:34;;;;;;;12.95;2.40;;;38.00;21.50;;;;;;5072362;28;20033;-61
2023/04/10 20:45:01;;;;;;;9.95;1.73;;;38.00;21.20;;;;;;5069315;28;20016;-59
2023/04/10 20:47:28;;;;;;;13.75;4.22;;;37.90;20.70;;;;;;5068799;28;20051;-60
2023/04/10 20:49:54;;;;;;;10.80;2.13;;;38.00;21.10;;;;;;5073507;28;20031;-60
2023/04/10 20:52:21;;;;;;;10.45;2.75;;;37.60;21.20;;;;;;5071333;28;20026;-60
2023/04/10 20:54:47;;;;;;;8.00;1.75;;;37.70;21.00;;;;;;5069205;28;20016;-61
2023/04/10 20:57:14;;;;;;;9.43;2.30;;;37.90;21.80;;;;;;5068952;28;20381;-63
2023/04/10 20:59:40;;;;;;;9.70;2.13;;;38.10;21.70;;;;;;5076759;28;20033;-62
2023/04/10 21:02:06;;;;;;;10.73;2.20;;;38.30;21.40;;;;;;5074351;28;20018;-61
2023/04/10 21:04:33;;;;;;;10.20;2.40;;;38.60;21.50;;;;;;5075372;28;20549;-60
2023/04/10 21:06:59;;;;;;;12.75;1.98;;;38.60;21.10;;;;;;5065906;28;20078;-60
2023/04/10 21:09:26;;;;;;;15.77;2.97;;;38.60;21.40;;;;;;5066980;28;20407;-60
2023/04/10 21:11:52;;;;;;;13.10;2.35;;;38.90;21.10;;;;;;5069009;28;20074;-61
2023/04/10 21:14:19;;;;;;;20.80;3.13;;;39.00;21.00;;;;;;5067052;28;20028;-61
2023/04/10 21:16:45;;;;;;;15.95;2.72;;;39.10;21.00;;;;;;5069760;28;20020;-61
2023/04/10 21:19:11;;;;;;;11.85;2.20;;;39.20;20.70;;;;;;5068783;28;20025;-62
2023/04/10 21:21:38;;;;;;;14.65;2.50;;;39.10;20.60;;;;;;5067115;28;20016;-60
2023/04/10 21:24:04;;;;;;;16.67;2.42;;;39.10;20.90;;;;;;5068051;28;20017;-60
2023/04/10 21:26:31;;;;;;;6.53;1.92;;;39.10;20.50;;;;;;5067995;28;20060;-61
2023/04/10 21:28:57;;;;;;;13.68;2.40;;;39.00;20.40;;;;;;5068895;28;20034;-61
2023/04/10 21:31:23;;;;;;;22.85;2.28;;;39.10;20.20;;;;;;5068614;28;20035;-61
2023/04/10 21:33:50;;;;;;;13.25;2.63;;;38.90;20.00;;;;;;5067097;28;20024;-61
2023/04/10 21:36:16;;;;;;;8.48;2.10;;;39.00;20.20;;;;;;5068078;28;20036;-61
2023/04/10 21:38:42;;;;;;;8.13;1.92;;;38.90;20.10;;;;;;5068890;28;20016;-62
2023/04/10 21:41:09;;;;;;;11.23;2.35;;;38.90;19.80;;;;;;5067227;28;20021;-61
2023/04/10 21:43:37;;;;;;;10.50;2.45;;;39.00;19.40;;;;;;5067207;28;20035;-62
2023/04/10 21:46:04;;;;;;;18.05;2.40;;;39.00;19.70;;;;;;5067222;28;20040;-61
2023/04/10 21:48:30;;;;;;;12.95;2.22;;;39.10;19.80;;;;;;5068190;28;20032;-60
2023/04/10 21:50:56;;;;;;;12.57;2.33;;;38.90;19.90;;;;;;5067497;28;20166;-60
2023/04/10 21:53:23;;;;;;;9.45;1.95;;;38.90;19.40;;;;;;5066666;28;20107;-61
2023/04/10 21:55:49;;;;;;;12.70;2.15;;;38.50;19.30;;;;;;5067582;28;20029;-60
2023/04/10 21:58:16;;;;;;;6.82;1.90;;;38.80;20.10;;;;;;5066450;28;20059;-60
2023/04/10 22:00:45;;;;;;;7.93;1.90;;;39.10;19.00;;;;;;5066982;28;20025;-61
2023/04/10 22:03:14;;;;;;;11.27;1.80;;;39.10;18.30;;;;;;5070180;28;20020;-61
2023/04/10 22:05:44;;;;;;;9.70;1.63;;;39.20;18.80;;;;;;5068020;28;20389;-61
2023/04/10 22:08:12;;;;;;;12.25;2.20;;;39.20;18.70;;;;;;5064176;28;20040;-63
2023/04/10 22:10:39;;;;;;;7.40;1.92;;;39.10;18.70;;;;;;5067519;28;20361;-60
2023/04/10 22:13:05;;;;;;;10.63;1.80;;;39.00;18.50;;;;;;5067806;28;20991;-62
2023/04/10 22:15:32;;;;;;;8.75;1.85;;;38.80;18.60;;;;;;5065947;28;20029;-62
2023/04/10 22:17:58;;;;;;;12.75;1.92;;;38.80;19.20;;;;;;5066439;28;20081;-61
2023/04/10 22:20:24;;;;;;;11.68;1.80;;;38.90;19.30;;;;;;5067573;28;20024;-61
2023/04/10 22:22:51;;;;;;;11.27;2.10;;;39.10;19.40;;;;;;5067066;28;20029;-62
2023/04/10 22:25:17;;;;;;;17.05;2.42;;;39.10;19.30;;;;;;5067583;28;20109;-63
2023/04/10 22:27:44;;;;;;;12.43;2.03;;;39.20;19.30;;;;;;5067572;28;20021;-60
2023/04/10 22:30:11;;;;;;;11.25;2.38;;;39.10;19.00;;;;;;5066444;28;20056;-62
2023/04/10 22:32:37;;;;;;;9.88;1.92;;;39.20;19.60;;;;;;5069447;28;20036;-61
2023/04/10 22:35:04;;;;;;;8.93;2.00;;;39.10;18.70;;;;;;5066852;28;20614;-60
2023/04/10 22:37:31;;;;;;;10.35;2.10;;;39.10;18.50;;;;;;5067835;28;20052;-63
2023/04/10 22:39:59;;;;;;;12.90;2.10;;;38.90;18.50;;;;;;5067713;28;20495;-62
2023/04/10 22:42:28;;;;;;;13.27;2.10;;;38.80;18.80;;;;;;5066060;28;20167;-63
2023/04/10 22:44:55;;;;;;;8.18;1.90;;;38.60;18.50;;;;;;5070967;28;20066;-62
2023/04/10 22:47:21;;;;;;;9.73;1.70;;;38.60;18.70;;;;;;5069950;28;20029;-62
2023/04/10 22:49:48;;;;;;;7.47;3.45;;;38.50;18.90;;;;;;5067553;28;20052;-62
2023/04/10 22:52:15;;;;;;;11.63;2.03;;;38.60;18.90;;;;;;5066710;28;20111;-63
2023/04/10 22:54:41;;;;;;;8.07;2.00;;;38.60;18.80;;;;;;5066223;28;20039;-61
2023/04/10 22:57:08;;;;;;;9.98;1.88;;;38.50;19.00;;;;;;5066549;28;20039;-62
2023/04/10 22:59:37;;;;;;;10.48;2.28;;;38.50;19.40;;;;;;5065879;28;20025;-62
2023/04/10 23:02:04;;;;;;;8.63;2.08;;;38.50;20.10;;;;;;5071621;28;20032;-62
2023/04/10 23:04:30;;;;;;;8.52;2.08;;;38.60;19.60;;;;;;5068329;28;20031;-64
2023/04/10 23:06:57;;;;;;;12.10;2.22;;;38.60;19.90;;;;;;5066514;28;20032;-63
2023/04/10 23:09:23;;;;;;;8.05;2.13;;;38.50;19.10;;;;;;5070031;28;20146;-63
2023/04/10 23:11:49;;;;;;;12.40;1.80;;;38.50;19.20;;;;;;5069204;28;20029;-65
2023/04/10 23:14:16;;;;;;;23.17;11.55;;;38.60;19.50;;;;;;5069892;28;20035;-62
2023/04/10 23:16:45;;;;;;;9.20;2.00;;;38.60;19.10;;;;;;5072207;28;20024;-63
2023/04/10 23:19:11;;;;;;;12.77;1.83;;;38.40;19.00;;;;;;5072180;28;20016;-62
2023/04/10 23:21:37;;;;;;;14.88;1.95;;;38.30;18.70;;;;;;5069671;28;20104;-62
2023/04/10 23:24:04;;;;;;;12.38;2.10;;;38.30;18.70;;;;;;5071139;28;20112;-61
2023/04/10 23:26:31;;;;;;;13.93;3.00;;;38.30;18.70;;;;;;5076888;28;20424;-63
2023/04/10 23:28:57;;;;;;;7.05;1.55;;;38.10;18.30;;;;;;5077271;28;20141;-64
2023/04/10 23:31:24;;;;;;;10.98;1.77;;;38.00;18.30;;;;;;5075336;28;20029;-60
2023/04/10 23:33:51;;;;;;;14.10;2.10;;;38.10;18.80;;;;;;5079832;28;20035;-64
2023/04/10 23:36:17;;;;;;;12.32;1.92;;;38.50;19.00;;;;;;5075443;28;20521;-62
2023/04/10 23:38:43;;;;;;;14.48;1.80;;;38.10;19.00;;;;;;5074823;28;20021;-61
2023/04/10 23:41:10;;;;;;;11.40;1.55;;;37.90;18.10;;;;;;5079776;28;21319;-65
2023/04/10 23:43:36;;;;;;;9.45;1.98;;;37.90;18.40;;;;;;5070619;28;20082;-62
2023/04/10 23:46:03;;;;;;;5.97;1.70;;;37.90;18.40;;;;;;5075727;28;20020;-62
2023/04/10 23:48:29;;;;;;;11.23;2.20;;;37.90;18.50;;;;;;5078914;28;20115;-63
2023/04/10 23:51:06;;;;;;;10.20;1.70;;;37.90;18.90;;;;;;5073053;28;20079;-64
2023/04/10 23:53:33;;;;;;;9.25;1.92;;;37.90;19.30;;;;;;5076249;28;20055;-62
2023/04/10 23:56:00;;;;;;;19.40;2.45;;;37.90;19.50;;;;;;5080193;28;20081;-62
2023/04/10 23:58:26;;;;;;;14.27;2.20;;;37.90;19.50;;;;;;5073312;28;20024;-62
